createdAt,value
2019-03-28T00:00:59.099Z,10.57
2019-03-28T00:03:29.105Z,10.27
2019-03-28T00:05:59.070Z,9.07
2019-03-28T00:08:28.978Z,10.23
2019-03-28T00:10:58.900Z,10.43
2019-03-28T00:13:28.908Z,9.40
2019-03-28T00:16:00.168Z,10.70
2019-03-28T00:18:30.117Z,11.63
2019-03-28T00:21:00.059Z,10.27
2019-03-28T00:23:54.650Z,10.37
2019-03-28T00:26:30.015Z,10.07
2019-03-28T00:28:56.402Z,11.23
2019-03-28T00:31:26.385Z,8.43
2019-03-28T00:33:56.369Z,10.13
2019-03-28T00:36:26.415Z,9.43
2019-03-28T00:38:56.358Z,8.77
2019-03-28T00:41:26.248Z,11.60
2019-03-28T00:43:56.145Z,7.37
2019-03-28T00:46:26.038Z,11.37
2019-03-28T00:48:56.091Z,10.97
2019-03-28T00:51:26.083Z,7.57
2019-03-28T00:53:56.155Z,7.93
2019-03-28T00:56:26.130Z,8.50
2019-03-28T00:58:56.040Z,8.27
2019-03-28T01:01:25.915Z,8.63
2019-03-28T01:03:55.829Z,9.90
2019-03-28T01:06:26.768Z,9.00
2019-03-28T01:08:56.727Z,8.00
2019-03-28T01:11:26.599Z,8.13
2019-03-28T01:13:56.516Z,8.00
2019-03-28T01:16:26.424Z,8.47
2019-03-28T01:18:57.065Z,10.80
2019-03-28T01:21:27.059Z,7.77
2019-03-28T01:23:57.039Z,9.13
2019-03-28T01:26:26.982Z,9.93
2019-03-28T01:28:56.906Z,9.20
2019-03-28T01:31:27.129Z,8.57
2019-03-28T01:33:57.043Z,7.90
2019-03-28T01:36:27.000Z,7.97
2019-03-28T01:38:56.870Z,9.63
2019-03-28T01:41:26.779Z,7.97
2019-03-28T01:43:56.755Z,7.07
2019-03-28T01:46:26.908Z,8.70
2019-03-28T01:48:56.834Z,11.13
2019-03-28T01:51:27.041Z,11.80
2019-03-28T01:53:56.927Z,17.87
2019-03-28T01:56:26.827Z,23.07
2019-03-28T01:58:56.739Z,21.27
2019-03-28T02:01:26.696Z,24.60
2019-03-28T02:03:56.764Z,19.93
2019-03-28T02:06:26.732Z,18.97
2019-03-28T02:08:56.634Z,22.10
2019-03-28T02:11:26.556Z,21.33
2019-03-28T02:13:56.476Z,25.05
2019-03-28T02:16:26.404Z,20.00
2019-03-28T02:18:56.345Z,20.92
2019-03-28T02:21:27.264Z,24.98
2019-03-28T02:23:57.363Z,23.67
2019-03-28T02:26:27.773Z,22.93
2019-03-28T02:28:57.678Z,20.50
2019-03-28T02:31:27.618Z,22.07
2019-03-28T02:33:58.453Z,22.25
2019-03-28T02:36:28.594Z,20.48
2019-03-28T02:38:58.893Z,21.40
2019-03-28T02:41:28.850Z,24.05
2019-03-28T02:43:58.752Z,21.00
2019-03-28T02:46:28.625Z,20.72
2019-03-28T02:48:58.563Z,22.10
2019-03-28T02:51:29.667Z,23.18
2019-03-28T02:54:01.064Z,24.25
2019-03-28T02:56:30.942Z,24.35
2019-03-28T02:59:02.813Z,21.73
2019-03-28T03:01:33.537Z,25.65
2019-03-28T03:04:03.461Z,19.98
2019-03-28T03:06:33.461Z,22.00
2019-03-28T03:09:04.664Z,22.65
2019-03-28T03:11:35.636Z,18.65
2019-03-28T03:14:06.143Z,20.30
2019-03-28T03:16:36.230Z,22.73
2019-03-28T03:19:06.409Z,22.67
2019-03-28T03:21:36.356Z,22.55
2019-03-28T03:24:06.302Z,17.12
2019-03-28T03:26:36.181Z,18.53
2019-03-28T03:29:06.632Z,18.27
2019-03-28T03:31:36.874Z,17.25
2019-03-28T03:34:06.988Z,18.55
2019-03-28T03:36:37.002Z,16.17
2019-03-28T03:39:09.283Z,18.12
2019-03-28T03:41:39.691Z,18.25
2019-03-28T03:44:09.763Z,19.15
2019-03-28T03:46:39.736Z,20.27
2019-03-28T03:49:09.730Z,18.27
2019-03-28T03:51:40.642Z,20.15
2019-03-28T03:54:10.737Z,20.85
2019-03-28T03:56:40.668Z,21.65
2019-03-28T03:59:11.659Z,23.47
2019-03-28T04:01:41.830Z,26.27
2019-03-28T04:04:11.743Z,27.15
2019-03-28T04:06:41.673Z,26.30
2019-03-28T04:09:11.584Z,25.00
2019-03-28T04:11:41.518Z,24.35
2019-03-28T04:14:11.428Z,26.95
2019-03-28T04:16:41.710Z,23.52
2019-03-28T04:19:11.918Z,24.43
2019-03-28T04:21:42.137Z,22.35
2019-03-28T04:24:12.266Z,17.00
2019-03-28T04:26:42.156Z,16.65
2019-03-28T04:29:12.059Z,21.90
2019-03-28T04:31:41.932Z,23.05
2019-03-28T04:34:11.856Z,20.52
2019-03-28T04:36:41.732Z,22.87
2019-03-28T04:39:11.659Z,22.85
2019-03-28T04:41:41.610Z,22.10
2019-03-28T04:44:11.625Z,18.50
2019-03-28T04:46:41.564Z,31.30
2019-03-28T04:49:11.458Z,26.33
2019-03-28T04:51:41.459Z,23.73
2019-03-28T04:54:11.425Z,23.52
2019-03-28T04:56:41.348Z,21.50
2019-03-28T04:59:11.304Z,24.15
2019-03-28T05:01:41.280Z,27.10
2019-03-28T05:04:11.218Z,23.70
2019-03-28T05:06:41.152Z,20.37
2019-03-28T05:09:11.132Z,22.87
2019-03-28T05:11:41.241Z,28.50
2019-03-28T05:14:11.393Z,31.82
2019-03-28T05:16:41.512Z,26.57
2019-03-28T05:19:11.442Z,26.23
2019-03-28T05:21:41.345Z,25.17
2019-03-28T05:24:11.463Z,26.40
2019-03-28T05:26:43.744Z,23.77
2019-03-28T05:29:13.690Z,24.07
2019-03-28T05:31:43.692Z,24.10
2019-03-28T05:34:13.612Z,24.45
2019-03-28T05:36:44.386Z,24.17
2019-03-28T05:39:14.327Z,24.17
2019-03-28T05:41:44.527Z,28.50
2019-03-28T05:44:14.870Z,26.80
2019-03-28T05:46:44.942Z,23.53
2019-03-28T05:49:14.899Z,22.77
2019-03-28T05:51:45.723Z,27.30
2019-03-28T05:54:16.676Z,31.43
2019-03-28T05:56:46.652Z,27.57
2019-03-28T05:59:19.442Z,28.40
2019-03-28T06:01:49.486Z,29.77
2019-03-28T06:04:19.392Z,26.50
2019-03-28T06:06:49.404Z,29.23
2019-03-28T06:09:19.513Z,26.17
2019-03-28T06:11:49.373Z,27.13
2019-03-28T06:14:19.285Z,26.77
2019-03-28T06:16:49.193Z,26.17
2019-03-28T06:19:19.110Z,32.30
2019-03-28T06:21:49.012Z,31.03
2019-03-28T06:24:18.910Z,26.77
2019-03-28T06:26:50.136Z,24.43
2019-03-28T06:29:23.996Z,22.43
2019-03-28T06:31:55.423Z,19.47
2019-03-28T06:34:23.461Z,22.13
2019-03-28T06:36:53.424Z,22.30
2019-03-28T06:39:23.911Z,21.93
2019-03-28T06:41:53.844Z,18.57
2019-03-28T06:44:23.991Z,20.80
2019-03-28T06:46:53.887Z,19.13
2019-03-28T06:49:23.771Z,22.00
2019-03-28T06:51:53.694Z,23.00
2019-03-28T06:54:24.426Z,20.07
2019-03-28T06:56:54.460Z,21.43
2019-03-28T06:59:36.706Z,20.53
2019-03-28T07:01:56.044Z,21.77
2019-03-28T07:04:26.213Z,22.87
2019-03-28T07:06:56.168Z,18.17
2019-03-28T07:09:26.399Z,17.37
2019-03-28T07:11:56.402Z,26.17
2019-03-28T07:14:26.292Z,28.33
2019-03-28T07:16:56.277Z,18.60
2019-03-28T07:19:26.203Z,17.17
2019-03-28T07:21:56.148Z,19.17
2019-03-28T07:24:26.043Z,17.57
2019-03-28T07:26:56.020Z,20.60
2019-03-28T07:29:26.120Z,18.73
2019-03-28T07:31:57.079Z,18.63
2019-03-28T07:34:27.121Z,18.77
2019-03-28T07:36:57.332Z,14.93
2019-03-28T07:39:27.221Z,16.50
2019-03-28T07:41:57.246Z,19.93
2019-03-28T07:44:28.594Z,17.93
2019-03-28T07:46:58.632Z,17.80
2019-03-28T07:49:28.916Z,15.93
2019-03-28T07:51:59.017Z,17.53
2019-03-28T07:54:28.955Z,15.33
2019-03-28T07:56:59.292Z,16.63
2019-03-28T07:59:30.493Z,18.67
2019-03-28T08:02:00.406Z,18.03
2019-03-28T08:04:30.345Z,15.27
2019-03-28T08:07:00.331Z,18.00
2019-03-28T08:09:36.417Z,13.30
2019-03-28T08:12:02.174Z,14.03
2019-03-28T08:14:32.346Z,17.97
2019-03-28T08:17:04.097Z,15.50
2019-03-28T08:19:35.295Z,16.80
2019-03-28T08:22:05.261Z,13.07
2019-03-28T08:24:35.213Z,12.80
2019-03-28T08:27:05.416Z,14.93
2019-03-28T08:29:36.517Z,11.67
2019-03-28T08:32:13.382Z,14.27
2019-03-28T08:34:42.008Z,13.07
2019-03-28T08:37:12.251Z,13.00
2019-03-28T08:39:44.585Z,10.90
2019-03-28T08:42:14.002Z,12.07
2019-03-28T08:44:44.262Z,17.97
2019-03-28T08:47:14.459Z,13.17
2019-03-28T08:49:44.565Z,13.77
2019-03-28T08:52:14.579Z,10.97
2019-03-28T08:54:44.523Z,12.97
2019-03-28T08:57:14.468Z,10.67
2019-03-28T09:02:33.659Z,10.90
2019-03-28T09:05:03.555Z,10.80
2019-03-28T09:07:33.504Z,10.20
2019-03-28T09:10:03.492Z,14.33
2019-03-28T09:12:35.351Z,11.30
2019-03-28T09:17:56.460Z,10.73
2019-03-28T09:20:26.391Z,14.37
2019-03-28T09:22:56.390Z,12.43
2019-03-28T09:25:26.397Z,10.37
2019-03-28T09:27:56.312Z,12.23
2019-03-28T09:30:48.974Z,11.43
2019-03-28T09:33:12.096Z,10.23
2019-03-28T09:35:42.118Z,10.70
2019-03-28T09:38:12.084Z,11.27
2019-03-28T09:40:42.174Z,15.33
2019-03-28T09:43:12.008Z,11.57
2019-03-28T09:45:41.931Z,12.10
2019-03-28T09:48:12.199Z,12.50
2019-03-28T09:50:42.306Z,11.40
2019-03-28T09:53:12.229Z,12.13
2019-03-28T09:55:43.244Z,12.60
2019-03-28T09:58:14.192Z,13.97
2019-03-28T10:00:44.098Z,13.33
2019-03-28T10:03:14.076Z,11.40
2019-03-28T10:05:44.015Z,13.43
2019-03-28T10:08:15.704Z,11.00
2019-03-28T10:10:48.635Z,12.67
2019-03-28T10:13:17.286Z,11.37
2019-03-28T10:15:47.210Z,13.10
2019-03-28T10:18:17.143Z,10.77
2019-03-28T10:20:47.042Z,10.77
2019-03-28T10:23:16.967Z,12.13
2019-03-28T10:25:46.953Z,11.40
2019-03-28T10:28:17.109Z,12.40
2019-03-28T10:30:47.757Z,10.90
2019-03-28T10:33:17.641Z,10.37
2019-03-28T10:35:47.638Z,10.10
2019-03-28T10:38:17.585Z,10.50
2019-03-28T10:40:47.547Z,9.97
2019-03-28T10:43:17.905Z,10.77
2019-03-28T10:45:47.820Z,9.93
2019-03-28T10:48:17.754Z,9.70
2019-03-28T10:50:47.633Z,10.80
2019-03-28T10:53:17.535Z,9.30
2019-03-28T10:55:47.403Z,9.23
2019-03-28T10:58:19.325Z,9.80
2019-03-28T11:00:49.182Z,10.07
2019-03-28T11:03:19.116Z,10.73
2019-03-28T11:05:49.024Z,10.80
2019-03-28T11:08:18.932Z,10.00
2019-03-28T11:10:48.960Z,8.87
2019-03-28T11:13:18.890Z,8.20
2019-03-28T11:15:48.816Z,9.60
2019-03-28T11:18:18.790Z,12.43
2019-03-28T11:20:49.910Z,7.97
2019-03-28T11:23:19.811Z,8.23
2019-03-28T11:25:49.712Z,10.27
2019-03-28T11:28:19.633Z,8.77
2019-03-28T11:30:49.525Z,8.33
2019-03-28T11:33:19.455Z,8.90
2019-03-28T11:35:49.388Z,8.30
2019-03-28T11:38:19.301Z,8.77
2019-03-28T11:40:50.639Z,8.07
2019-03-28T11:43:20.629Z,9.53
2019-03-28T11:45:50.510Z,10.20
2019-03-28T11:48:20.850Z,10.33
2019-03-28T11:50:50.739Z,8.23
2019-03-28T11:53:20.645Z,8.50
2019-03-28T11:55:50.713Z,7.53
2019-03-28T11:58:20.636Z,8.60
2019-03-28T12:00:51.335Z,9.37
2019-03-28T12:03:21.225Z,10.50
2019-03-28T12:05:53.121Z,10.10
2019-03-28T12:08:23.082Z,8.93
2019-03-28T12:10:53.031Z,8.87
2019-03-28T12:13:22.917Z,7.47
2019-03-28T12:15:53.151Z,9.03
2019-03-28T12:18:25.128Z,8.80
2019-03-28T12:20:55.095Z,8.47
2019-03-28T12:23:25.034Z,9.20
2019-03-28T12:25:54.943Z,8.60
2019-03-28T12:28:24.965Z,9.23
2019-03-28T12:30:54.851Z,10.67
2019-03-28T12:33:24.753Z,8.07
2019-03-28T12:35:54.637Z,8.90
2019-03-28T12:38:24.880Z,7.70
2019-03-28T12:40:55.116Z,8.37
2019-03-28T12:43:25.005Z,8.43
2019-03-28T12:45:54.959Z,10.33
2019-03-28T12:48:24.976Z,7.90
2019-03-28T12:50:58.928Z,7.70
2019-03-28T12:53:26.605Z,7.50
2019-03-28T12:55:56.512Z,9.67
2019-03-28T12:58:26.450Z,7.97
2019-03-28T13:00:56.584Z,9.07
2019-03-28T13:03:29.835Z,8.63
2019-03-28T13:05:58.775Z,8.17
2019-03-28T13:08:28.689Z,7.90
2019-03-28T13:10:58.903Z,7.43
2019-03-28T13:13:29.473Z,7.90
2019-03-28T13:15:59.572Z,11.63
2019-03-28T13:18:29.543Z,7.63
2019-03-28T13:21:12.367Z,8.13
2019-03-28T13:23:31.173Z,8.27
2019-03-28T13:26:01.145Z,8.77
2019-03-28T13:28:31.082Z,8.37
2019-03-28T13:31:01.207Z,9.93
2019-03-28T13:33:31.112Z,10.20
2019-03-28T13:36:01.090Z,11.30
2019-03-28T13:38:30.983Z,8.10
2019-03-28T13:41:00.901Z,9.03
2019-03-28T13:43:30.958Z,8.67
2019-03-28T13:46:00.867Z,9.17
2019-03-28T13:48:31.991Z,7.67
2019-03-28T13:51:01.883Z,9.20
2019-03-28T13:53:39.487Z,8.73
2019-03-28T13:56:03.566Z,10.20
2019-03-28T13:58:33.509Z,9.60
2019-03-28T14:01:03.521Z,9.03
2019-03-28T14:03:33.370Z,11.83
2019-03-28T14:06:03.279Z,10.27
2019-03-28T14:08:33.413Z,11.73
2019-03-28T14:11:03.343Z,10.57
2019-03-28T14:13:33.304Z,10.10
2019-03-28T14:16:03.237Z,8.20
2019-03-28T14:18:33.183Z,8.53
2019-03-28T14:21:03.513Z,8.77
2019-03-28T14:23:33.428Z,8.43
2019-03-28T14:26:03.327Z,8.60
2019-03-28T14:28:33.226Z,8.27
2019-03-28T14:31:03.269Z,9.83
2019-03-28T14:33:33.202Z,7.83
2019-03-28T14:36:04.484Z,14.50
2019-03-28T14:38:37.259Z,13.90
2019-03-28T14:41:07.324Z,9.80
2019-03-28T14:43:37.355Z,10.50
2019-03-28T14:46:07.369Z,7.87
2019-03-28T14:48:37.417Z,8.73
2019-03-28T14:51:07.459Z,8.43
2019-03-28T14:53:37.389Z,8.57
2019-03-28T14:56:07.660Z,8.17
2019-03-28T14:58:38.542Z,8.47
2019-03-28T15:01:08.461Z,10.87
2019-03-28T15:03:38.485Z,9.50
2019-03-28T15:06:08.558Z,7.60
2019-03-28T15:08:38.909Z,7.47
2019-03-28T15:11:08.813Z,10.30
2019-03-28T15:13:40.435Z,9.13
2019-03-28T15:16:11.201Z,9.70
2019-03-28T15:18:41.506Z,9.70
2019-03-28T15:21:11.377Z,8.87
2019-03-28T15:23:41.294Z,16.33
2019-03-28T15:26:11.262Z,19.47
2019-03-28T15:28:41.154Z,12.07
2019-03-28T15:31:11.084Z,9.50
2019-03-28T15:33:40.977Z,12.90
2019-03-28T15:36:10.897Z,11.43
2019-03-28T15:38:40.800Z,15.23
2019-03-28T15:41:10.745Z,12.67
2019-03-28T15:43:40.660Z,11.40
2019-03-28T15:46:10.597Z,10.30
2019-03-28T15:48:40.487Z,15.83
2019-03-28T15:51:10.518Z,13.97
2019-03-28T15:53:41.201Z,23.87
2019-03-28T15:56:11.133Z,11.87
2019-03-28T15:58:41.082Z,17.33
2019-03-28T16:01:11.134Z,14.63
2019-03-28T16:03:52.467Z,18.47
2019-03-28T16:06:12.654Z,13.40
2019-03-28T16:08:42.963Z,11.47
2019-03-28T16:11:12.832Z,13.17
2019-03-28T16:13:42.702Z,17.93
2019-03-28T16:16:12.601Z,13.27
2019-03-28T16:18:42.518Z,17.47
2019-03-28T16:21:12.414Z,12.20
2019-03-28T16:23:42.390Z,16.83
2019-03-28T16:26:12.276Z,16.83
2019-03-28T16:28:42.269Z,16.03
2019-03-28T16:31:12.163Z,12.67
2019-03-28T16:33:42.056Z,11.40
2019-03-28T16:36:13.045Z,12.13
2019-03-28T16:38:43.010Z,11.10
2019-03-28T16:41:12.987Z,16.03
2019-03-28T16:43:42.923Z,14.07
2019-03-28T16:46:12.817Z,13.07
2019-03-28T16:48:42.979Z,13.13
2019-03-28T16:51:13.119Z,19.60
2019-03-28T16:53:43.059Z,17.10
2019-03-28T16:56:12.988Z,14.97
2019-03-28T16:58:42.904Z,16.80
2019-03-28T17:01:12.899Z,24.00
2019-03-28T17:03:43.274Z,19.43
2019-03-28T17:06:13.380Z,14.57
2019-03-28T17:08:45.105Z,12.90
2019-03-28T17:11:15.671Z,13.47
2019-03-28T17:13:46.485Z,18.00
2019-03-28T17:16:16.864Z,13.60
2019-03-28T17:18:46.918Z,14.23
2019-03-28T17:21:17.365Z,20.23
2019-03-28T17:23:47.793Z,19.07
2019-03-28T17:26:17.779Z,22.60
2019-03-28T17:28:47.909Z,18.17
2019-03-28T17:31:19.011Z,15.70
2019-03-28T17:33:49.227Z,14.07
2019-03-28T17:36:19.261Z,18.00
2019-03-28T17:38:49.306Z,15.17
2019-03-28T17:41:19.290Z,19.53
2019-03-28T17:43:49.224Z,21.87
2019-03-28T17:46:19.232Z,21.93
2019-03-28T17:48:49.250Z,21.97
2019-03-28T17:51:19.585Z,21.07
2019-03-28T17:53:49.563Z,20.03
2019-03-28T17:56:19.602Z,18.93
2019-03-28T17:58:50.015Z,18.37
2019-03-28T18:01:19.966Z,19.80
2019-03-28T18:03:50.067Z,19.03
2019-03-28T18:06:19.990Z,14.23
2019-03-28T18:08:49.914Z,15.73
2019-03-28T18:11:20.184Z,14.07
2019-03-28T18:13:50.135Z,20.77
2019-03-28T18:16:20.086Z,15.37
2019-03-28T18:18:50.010Z,15.40
2019-03-28T18:21:20.171Z,13.60
2019-03-28T18:23:50.281Z,20.30
2019-03-28T18:26:21.147Z,16.70
2019-03-28T18:28:51.454Z,16.43
2019-03-28T18:31:21.420Z,16.70
2019-03-28T18:33:51.382Z,21.97
2019-03-28T18:36:21.394Z,21.43
2019-03-28T18:38:52.617Z,24.60
2019-03-28T18:41:22.505Z,27.40
2019-03-28T18:43:52.541Z,27.23
2019-03-28T18:46:22.705Z,28.07
2019-03-28T18:48:52.622Z,29.73
2019-03-28T18:51:22.761Z,27.13
2019-03-28T18:53:52.693Z,26.43
2019-03-28T18:56:22.649Z,23.87
2019-03-28T18:58:52.551Z,24.07
2019-03-28T19:01:22.573Z,27.17
2019-03-28T19:03:52.522Z,17.83
2019-03-28T19:06:22.451Z,22.20
2019-03-28T19:08:52.352Z,22.03
2019-03-28T19:11:22.239Z,25.03
2019-03-28T19:13:52.168Z,18.37
2019-03-28T19:16:22.262Z,18.67
2019-03-28T19:18:52.714Z,23.67
2019-03-28T19:21:22.678Z,25.40
2019-03-28T19:23:52.662Z,25.40
2019-03-28T19:26:22.581Z,24.47
2019-03-28T19:28:56.075Z,30.30
2019-03-28T19:31:24.843Z,24.53
2019-03-28T19:33:54.733Z,31.23
2019-03-28T19:36:24.990Z,21.27
2019-03-28T19:38:55.582Z,24.70
2019-03-28T19:41:25.592Z,24.43
2019-03-28T19:43:56.997Z,28.43
2019-03-28T19:46:27.018Z,25.73
2019-03-28T19:48:56.927Z,27.00
2019-03-28T19:51:28.387Z,32.00
2019-03-28T19:53:58.610Z,27.97
2019-03-28T19:56:28.566Z,25.53
2019-03-28T19:58:59.241Z,16.73
2019-03-28T20:01:29.295Z,18.77
2019-03-28T20:03:59.165Z,13.63
2019-03-28T20:06:29.331Z,15.83
2019-03-28T20:08:59.308Z,16.17
2019-03-28T20:11:29.267Z,13.00
2019-03-28T20:13:59.177Z,9.73
2019-03-28T20:16:29.110Z,13.83
2019-03-28T20:18:59.178Z,15.97
2019-03-28T20:21:29.565Z,35.80
2019-03-28T20:23:59.491Z,18.80
2019-03-28T20:26:29.861Z,21.67
2019-03-28T20:29:00.052Z,18.30
2019-03-28T20:31:29.967Z,12.47
2019-03-28T20:34:00.137Z,15.87
2019-03-28T20:36:37.580Z,23.03
2019-03-28T20:39:04.262Z,22.10
2019-03-28T20:41:33.515Z,21.53
2019-03-28T20:44:03.418Z,20.90
2019-03-28T20:46:33.416Z,23.73
2019-03-28T20:49:03.376Z,26.97
2019-03-28T20:51:33.278Z,25.53
2019-03-28T20:54:03.781Z,33.43
2019-03-28T20:56:34.777Z,24.63
2019-03-28T20:59:05.607Z,40.17
2019-03-28T21:01:36.761Z,34.23
2019-03-28T21:04:07.815Z,33.33
2019-03-28T21:06:37.878Z,37.80
2019-03-28T21:09:08.705Z,39.40
2019-03-28T21:11:38.963Z,38.23
2019-03-28T21:14:08.897Z,46.13
2019-03-28T21:16:38.901Z,51.90
2019-03-28T21:19:08.876Z,47.33
2019-03-28T21:21:38.777Z,38.80
2019-03-28T21:24:09.048Z,42.40
2019-03-28T21:26:38.946Z,37.23
2019-03-28T21:29:09.244Z,31.27
2019-03-28T21:31:49.214Z,31.00
2019-03-28T21:34:11.061Z,26.63
2019-03-28T21:36:41.107Z,24.17
2019-03-28T21:39:11.213Z,22.63
2019-03-28T21:41:41.132Z,23.20
2019-03-28T21:44:11.046Z,23.93
2019-03-28T21:46:41.074Z,14.93
2019-03-28T21:49:11.587Z,15.57
2019-03-28T21:51:45.665Z,19.87
2019-03-28T21:54:14.144Z,19.27
2019-03-28T21:56:44.108Z,17.07
2019-03-28T21:59:14.073Z,17.03
2019-03-28T22:01:43.990Z,17.87
2019-03-28T22:04:13.925Z,18.93
2019-03-28T22:06:43.879Z,16.73
2019-03-28T22:09:13.839Z,19.50
2019-03-28T22:11:43.790Z,13.50
2019-03-28T22:14:13.883Z,14.77
2019-03-28T22:16:43.975Z,15.93
2019-03-28T22:19:13.925Z,16.10
2019-03-28T22:21:44.453Z,18.63
2019-03-28T22:24:14.393Z,16.57
2019-03-28T22:26:46.022Z,18.73
2019-03-28T22:29:16.206Z,17.17
2019-03-28T22:31:46.246Z,18.03
2019-03-28T22:34:16.171Z,25.23
2019-03-28T22:36:56.673Z,19.00
2019-03-28T22:39:17.731Z,19.80
2019-03-28T22:41:48.259Z,20.40
2019-03-28T22:44:18.842Z,21.47
2019-03-28T22:46:48.722Z,22.97
2019-03-28T22:49:18.661Z,21.93
2019-03-28T22:51:48.583Z,21.03
2019-03-28T22:54:18.499Z,19.73
2019-03-28T22:56:48.543Z,20.97
2019-03-28T22:59:19.831Z,26.57
2019-03-28T23:01:49.871Z,22.47
2019-03-28T23:04:19.928Z,24.83
2019-03-28T23:06:49.899Z,26.93
2019-03-28T23:09:19.790Z,24.63
2019-03-28T23:11:49.788Z,25.50
2019-03-28T23:14:20.226Z,27.30
2019-03-28T23:16:50.264Z,23.10
2019-03-28T23:19:20.155Z,22.50
2019-03-28T23:21:50.139Z,23.03
2019-03-28T23:24:20.400Z,24.50
2019-03-28T23:26:50.308Z,25.47
2019-03-28T23:29:20.305Z,39.37
2019-03-28T23:31:50.842Z,34.33
2019-03-28T23:34:20.786Z,26.53
2019-03-28T23:36:50.674Z,24.63
2019-03-28T23:39:20.597Z,24.30
2019-03-28T23:41:50.532Z,25.13
2019-03-28T23:44:20.446Z,22.63
2019-03-28T23:46:50.383Z,20.30
2019-03-28T23:49:20.332Z,20.70
2019-03-28T23:51:51.560Z,19.70
2019-03-28T23:54:21.474Z,19.23
2019-03-28T23:56:51.439Z,19.03
2019-03-28T23:59:21.355Z,16.57
